Time;durP1;ratioP1;P1;durP2;ratioP2;P2;SDS_P1;SDS_P2;PMS_P1;PMS_P2;Temp;Humidity;BMP_temperature;BMP_pressure;BME280_temperature;BME280_humidity;BME280_pressure;Samples;Min_cycle;Max_cycle;Signal;HPM_P1;HPM_P2
2022/03/29 00:01:57;;;;;;;;;;;14.20;85.50;;;;;;5094615;28;19963;-61
2022/03/29 00:04:25;;;;;;;;;;;14.20;86.30;;;;;;5088553;28;19967;-62
2022/03/29 00:06:54;;;;;;;;;;;14.30;86.50;;;;;;5084443;28;19920;-61
2022/03/29 00:09:22;;;;;;;;;;;14.30;85.70;;;;;;5094560;28;19951;-61
2022/03/29 00:11:50;;;;;;;;;;;14.40;86.90;;;;;;5081508;28;19924;-61
2022/03/29 00:14:18;;;;;;;;;;;14.30;83.80;;;;;;5092389;28;20003;-61
2022/03/29 00:16:45;;;;;;;;;;;14.30;85.80;;;;;;5094165;28;19991;-61
2022/03/29 00:19:13;;;;;;;;;;;14.20;83.00;;;;;;5094534;28;20384;-61
2022/03/29 00:21:41;;;;;;;;;;;14.10;84.50;;;;;;5094350;28;20464;-61
2022/03/29 00:24:10;;;;;;;;;;;14.00;83.40;;;;;;5093689;28;19968;-62
2022/03/29 00:26:38;;;;;;;;;;;13.90;84.90;;;;;;5094309;28;19943;-62
2022/03/29 00:29:08;;;;;;;;;;;13.90;86.90;;;;;;5094227;28;19982;-61
2022/03/29 00:31:35;;;;;;;;;;;13.90;87.30;;;;;;5094743;28;19940;-62
2022/03/29 00:34:03;;;;;;;;;;;13.90;87.00;;;;;;5093631;28;20303;-62
2022/03/29 00:36:32;;;;;;;;;;;14.00;87.00;;;;;;5094051;28;20373;-62
2022/03/29 00:39:00;;;;;;;;;;;14.10;88.40;;;;;;5084609;28;19963;-62
2022/03/29 00:41:29;;;;;;;;;;;14.10;88.90;;;;;;5096107;28;19920;-62
2022/03/29 00:43:57;;;;;;;;;;;14.20;88.80;;;;;;5093151;28;20436;-63
2022/03/29 00:46:25;;;;;;;;;;;14.10;88.50;;;;;;5093987;28;19924;-62
2022/03/29 00:48:54;;;;;;;;;;;14.10;88.00;;;;;;5093965;28;19969;-62
2022/03/29 00:51:21;;;;;;;;;;;14.10;88.20;;;;;;5093964;28;19943;-62
2022/03/29 00:53:50;;;;;;;;;;;14.00;87.80;;;;;;5092882;28;19920;-62
2022/03/29 00:56:19;;;;;;;;;;;14.00;90.10;;;;;;5093681;28;20014;-62
2022/03/29 00:58:49;;;;;;;;;;;14.00;88.80;;;;;;5094166;28;19974;-62
2022/03/29 01:01:17;;;;;;;;;;;14.00;89.20;;;;;;5093864;28;19920;-62
2022/03/29 01:03:46;;;;;;;;;;;14.00;89.90;;;;;;5092826;28;20019;-62
2022/03/29 01:06:14;;;;;;;;;;;13.90;89.20;;;;;;5093583;28;19920;-62
2022/03/29 01:08:44;;;;;;;;;;;13.90;90.00;;;;;;5083741;28;19955;-62
2022/03/29 01:11:12;;;;;;;;;;;14.00;90.30;;;;;;5092014;28;19963;-62
2022/03/29 01:13:41;;;;;;;;;;;14.00;90.60;;;;;;5092778;28;19924;-62
2022/03/29 01:18:56;;;;;;;;;;;13.80;91.00;;;;;;5093690;28;19995;-61
2022/03/29 01:21:25;;;;;;;;;;;13.80;91.10;;;;;;5099752;28;19924;-61
2022/03/29 01:23:55;;;;;;;;;;;13.70;91.40;;;;;;5092506;28;19952;-62
2022/03/29 01:26:22;;;;;;;;;;;13.70;91.50;;;;;;5093191;28;19959;-62
2022/03/29 01:28:50;;;;;;;;;;;13.60;92.30;;;;;;5093162;28;19920;-62
2022/03/29 01:31:18;;;;;;;;;;;13.60;91.90;;;;;;5093277;28;19955;-61
2022/03/29 01:33:46;;;;;;;;;;;13.50;92.10;;;;;;5092428;28;20436;-63
2022/03/29 01:36:14;;;;;;;;;;;13.50;92.10;;;;;;5092946;28;19924;-63
2022/03/29 01:38:41;;;;;;;;;;;13.50;92.10;;;;;;5089005;28;20036;-63
2022/03/29 01:41:10;;;;;;;;;;;13.50;92.80;;;;;;5092409;28;19966;-63
2022/03/29 01:43:38;;;;;;;;;;;13.40;92.90;;;;;;5092194;28;19958;-63
2022/03/29 01:46:07;;;;;;;;;;;13.40;92.90;;;;;;5092907;28;19966;-63
2022/03/29 01:48:35;;;;;;;;;;;13.40;93.10;;;;;;5092746;28;19920;-63
2022/03/29 01:51:03;;;;;;;;;;;13.30;93.20;;;;;;5092885;28;19927;-63
2022/03/29 01:53:31;;;;;;;;;;;13.20;93.70;;;;;;5091746;28;19924;-63
2022/03/29 01:55:59;;;;;;;;;;;13.20;94.00;;;;;;5092702;28;20313;-62
2022/03/29 01:58:30;;;;;;;;;;;13.20;94.30;;;;;;5092747;28;19952;-62
2022/03/29 02:00:58;;;;;;;;;;;13.10;94.00;;;;;;5092682;28;19959;-62
2022/03/29 02:03:26;;;;;;;;;;;13.10;94.10;;;;;;5092056;28;19970;-62
2022/03/29 02:05:54;;;;;;;;;;;13.10;94.20;;;;;;5092409;28;19965;-62
2022/03/29 02:08:22;;;;;;;;;;;13.10;95.20;;;;;;5080820;28;20270;-62
2022/03/29 02:10:50;;;;;;;;;;;13.10;94.30;;;;;;5088826;28;19930;-62
2022/03/29 02:13:18;;;;;;;;;;;13.10;94.10;;;;;;5091702;28;20018;-62
2022/03/29 02:15:47;;;;;;;;;;;13.00;94.30;;;;;;5091849;28;20038;-62
2022/03/29 02:18:15;;;;;;;;;;;13.00;94.60;;;;;;5092692;28;19920;-62
2022/03/29 02:20:43;;;;;;;;;;;13.00;94.00;;;;;;5092104;28;19977;-62
2022/03/29 02:23:14;;;;;;;;;;;12.90;94.80;;;;;;5090526;28;19985;-62
2022/03/29 02:25:42;;;;;;;;;;;12.90;94.20;;;;;;5092095;28;20001;-62
2022/03/29 02:28:10;;;;;;;;;;;12.80;94.30;;;;;;5091899;28;19981;-62
2022/03/29 02:30:37;;;;;;;;;;;12.90;94.00;;;;;;5092061;28;19959;-62
2022/03/29 02:33:07;;;;;;;;;;;12.80;94.50;;;;;;5091446;28;19923;-63
2022/03/29 02:35:35;;;;;;;;;;;12.80;94.70;;;;;;5091739;28;20441;-63
2022/03/29 02:38:06;;;;;;;;;;;12.90;95.30;;;;;;5089674;28;19921;-63
2022/03/29 02:40:34;;;;;;;;;;;12.90;94.90;;;;;;5097103;28;19924;-63
2022/03/29 02:43:01;;;;;;;;;;;12.90;95.20;;;;;;5091404;28;19924;-63
2022/03/29 02:45:29;;;;;;;;;;;13.00;94.50;;;;;;5091884;28;19924;-63
2022/03/29 02:47:58;;;;;;;;;;;12.90;95.10;;;;;;5091953;28;19920;-63
2022/03/29 02:50:27;;;;;;;;;;;12.90;95.50;;;;;;5091869;28;20360;-63
2022/03/29 02:52:56;;;;;;;;;;;13.00;95.10;;;;;;5091079;28;19927;-62
2022/03/29 02:55:24;;;;;;;;;;;13.00;95.40;;;;;;5091522;28;19981;-62
2022/03/29 02:57:53;;;;;;;;;;;13.00;94.90;;;;;;5091790;28;19920;-62
2022/03/29 03:00:21;;;;;;;;;;;13.00;94.90;;;;;;5092042;28;19920;-62
2022/03/29 03:02:49;;;;;;;;;;;12.90;94.30;;;;;;5090751;28;20003;-62
2022/03/29 03:05:19;;;;;;;;;;;12.70;94.10;;;;;;5091689;28;20023;-62
2022/03/29 03:07:49;;;;;;;;;;;12.60;95.00;;;;;;5090044;28;19924;-62
2022/03/29 03:10:16;;;;;;;;;;;12.40;94.40;;;;;;5085835;28;19920;-63
2022/03/29 03:12:45;;;;;;;;;;;12.30;96.20;;;;;;5091090;28;19921;-63
2022/03/29 03:15:13;;;;;;;;;;;12.10;95.00;;;;;;5091539;28;19950;-63
2022/03/29 03:17:41;;;;;;;;;;;12.10;95.10;;;;;;5091122;28;20797;-63
2022/03/29 03:20:10;;;;;;;;;;;12.00;95.30;;;;;;5091236;28;19956;-62
2022/03/29 03:22:38;;;;;;;;;;;12.00;95.20;;;;;;5115589;22;19959;-63
2022/03/29 03:25:08;;;;;;;;;;;11.90;96.00;;;;;;5091016;28;19965;-62
2022/03/29 03:27:36;;;;;;;;;;;11.90;96.50;;;;;;5091591;28;19924;-62
2022/03/29 03:30:04;;;;;;;;;;;11.90;96.70;;;;;;5091329;28;19959;-62
2022/03/29 03:32:32;;;;;;;;;;;11.90;97.00;;;;;;5090828;28;19973;-61
2022/03/29 03:34:59;;;;;;;;;;;11.90;96.20;;;;;;5093931;28;19935;-63
2022/03/29 03:37:27;;;;;;;;;;;11.90;97.00;;;;;;5090307;28;20023;-62
2022/03/29 03:39:55;;;;;;;;;;;11.90;97.90;;;;;;5090170;28;20086;-63
2022/03/29 03:42:24;;;;;;;;;;;12.00;98.00;;;;;;5094545;28;20373;-62
2022/03/29 03:44:52;;;;;;;;;;;12.10;97.60;;;;;;5095069;28;19950;-63
2022/03/29 03:47:20;;;;;;;;;;;12.10;96.80;;;;;;5095196;28;19951;-63
2022/03/29 03:49:48;;;;;;;;;;;12.00;97.80;;;;;;5095045;28;20007;-62
2022/03/29 03:52:15;;;;;;;;;;;11.90;98.10;;;;;;5094333;28;19974;-63
2022/03/29 03:54:44;;;;;;;;;;;11.80;97.60;;;;;;5095016;28;20005;-62
2022/03/29 03:57:11;;;;;;;;;;;11.80;99.00;;;;;;5094917;28;19961;-62
2022/03/29 03:59:40;;;;;;;;;;;11.90;99.10;;;;;;5094804;28;20396;-62
2022/03/29 04:02:08;;;;;;;;;;;12.00;99.90;;;;;;5094126;28;20019;-62
2022/03/29 04:04:36;;;;;;;;;;;12.10;99.90;;;;;;5094523;28;20292;-65
2022/03/29 04:07:05;;;;;;;;;;;12.20;99.30;;;;;;5094779;28;20486;-63
2022/03/29 04:09:35;;;;;;;;;;;12.20;99.60;;;;;;5088492;28;19920;-62
2022/03/29 04:12:03;;;;;;;;;;;12.20;98.20;;;;;;5093802;28;19927;-62
2022/03/29 04:14:31;;;;;;;;;;;12.20;99.00;;;;;;5094700;28;19967;-62
2022/03/29 04:17:00;;;;;;;;;;;12.00;98.20;;;;;;5094669;28;20321;-62
2022/03/29 04:19:27;;;;;;;;;;;11.90;99.90;;;;;;5094494;28;20392;-62
2022/03/29 04:21:55;;;;;;;;;;;11.90;99.60;;;;;;5093187;28;19950;-62
2022/03/29 04:24:24;;;;;;;;;;;11.80;99.30;;;;;;5094121;28;19920;-62
2022/03/29 04:26:51;;;;;;;;;;;11.80;99.90;;;;;;5094280;28;19978;-62
2022/03/29 04:29:19;;;;;;;;;;;11.70;99.80;;;;;;5094216;28;19920;-62
2022/03/29 04:31:47;;;;;;;;;;;11.80;99.90;;;;;;5093967;28;19964;-63
2022/03/29 04:34:16;;;;;;;;;;;11.80;99.90;;;;;;5093717;28;19942;-63
2022/03/29 04:36:44;;;;;;;;;;;11.70;99.90;;;;;;5067119;28;19936;-62
2022/03/29 04:39:12;;;;;;;;;;;11.70;99.90;;;;;;5065687;28;20006;-63
2022/03/29 04:41:40;;;;;;;;;;;11.70;99.90;;;;;;5060470;28;20348;-61
2022/03/29 04:44:28;;;;;;;;;;;11.80;99.90;;;;;;5069209;28;20062;-62
2022/03/29 04:46:55;;;;;;;;;;;11.70;99.90;;;;;;5060792;28;19986;-62
2022/03/29 04:49:24;;;;;;;;;;;11.70;99.90;;;;;;5064228;28;19940;-62
2022/03/29 04:51:52;;;;;;;;;;;11.60;99.90;;;;;;5064027;28;19935;-62
2022/03/29 04:54:20;;;;;;;;;;;11.50;99.90;;;;;;5064769;28;19960;-62
2022/03/29 04:56:47;;;;;;;;;;;11.40;99.90;;;;;;5065173;28;19972;-62
2022/03/29 04:59:15;;;;;;;;;;;11.40;99.90;;;;;;5061676;28;20004;-62
2022/03/29 05:01:43;;;;;;;;;;;11.40;99.90;;;;;;5061247;28;19932;-62
2022/03/29 05:04:15;;;;;;;;;;;11.40;99.90;;;;;;5062006;28;20400;-62
2022/03/29 05:06:44;;;;;;;;;;;11.30;99.90;;;;;;5062059;28;19998;-62
2022/03/29 05:09:11;;;;;;;;;;;11.30;99.90;;;;;;5061087;28;19940;-62
2022/03/29 05:11:39;;;;;;;;;;;11.20;99.90;;;;;;5064030;28;20019;-64
2022/03/29 05:14:07;;;;;;;;;;;11.30;99.90;;;;;;5067241;28;20188;-62
2022/03/29 05:16:35;;;;;;;;;;;11.20;99.90;;;;;;5061373;28;20017;-62
2022/03/29 05:19:02;;;;;;;;;;;11.20;99.90;;;;;;5061654;28;19928;-62
2022/03/29 05:21:31;;;;;;;;;;;11.20;99.90;;;;;;5063464;28;19989;-62
2022/03/29 05:24:00;;;;;;;;;;;11.30;99.90;;;;;;5060062;28;19972;-65
2022/03/29 05:26:29;;;;;;;;;;;11.30;99.90;;;;;;5061561;28;19986;-64
2022/03/29 05:28:56;;;;;;;;;;;11.30;99.90;;;;;;5063258;28;20056;-63
2022/03/29 05:31:24;;;;;;;;;;;11.30;99.90;;;;;;5065307;28;20049;-64
2022/03/29 05:33:52;;;;;;;;;;;11.30;99.90;;;;;;5059358;28;19939;-62
2022/03/29 05:36:20;;;;;;;;;;;11.30;99.90;;;;;;5063165;28;19928;-63
2022/03/29 05:38:50;;;;;;;;;;;11.20;99.90;;;;;;5066833;28;20019;-63
2022/03/29 05:41:20;;;;;;;;;;;11.10;99.90;;;;;;5062173;28;20207;-63
2022/03/29 05:43:48;;;;;;;;;;;11.00;99.90;;;;;;5060972;28;19928;-63
2022/03/29 05:49:02;;;;;;;;;;;11.10;99.90;;;;;;5061127;28;19959;-64
2022/03/29 05:51:31;;;;;;;;;;;11.10;99.90;;;;;;5063271;28;20492;-65
2022/03/29 05:54:00;;;;;;;;;;;11.20;99.90;;;;;;5064857;28;20035;-64
2022/03/29 05:56:29;;;;;;;;;;;11.30;99.90;;;;;;5063990;28;20774;-63
2022/03/29 05:58:57;;;;;;;;;;;11.30;99.90;;;;;;5060684;28;19928;-64
2022/03/29 06:01:25;;;;;;;;;;;11.20;99.90;;;;;;5061974;28;20077;-63
2022/03/29 06:03:53;;;;;;;;;;;11.30;99.90;;;;;;5058633;28;19943;-63
2022/03/29 06:06:21;;;;;;;;;;;11.30;99.90;;;;;;5060821;28;19933;-63
2022/03/29 06:08:49;;;;;;;;;;;11.40;99.90;;;;;;5076048;28;20010;-64
2022/03/29 06:11:17;;;;;;;;;;;11.40;99.90;;;;;;5086055;28;19928;-64
2022/03/29 06:13:46;;;;;;;;;;;11.60;99.90;;;;;;5087450;28;20377;-63
2022/03/29 06:16:14;;;;;;;;;;;11.70;99.90;;;;;;5091899;28;19968;-64
2022/03/29 06:18:42;;;;;;;;;;;11.90;99.90;;;;;;5092070;28;19924;-65
2022/03/29 06:21:10;;;;;;;;;;;12.10;99.90;;;;;;5091672;28;20031;-64
2022/03/29 06:23:38;;;;;;;;;;;12.00;99.90;;;;;;5091334;28;19931;-64
2022/03/29 06:26:06;;;;;;;;;;;12.10;99.90;;;;;;5091986;28;19972;-64
2022/03/29 06:28:33;;;;;;;;;;;12.20;99.90;;;;;;5092235;28;19924;-65
2022/03/29 06:31:03;;;;;;;;;;;12.20;99.90;;;;;;5091898;28;19924;-64
2022/03/29 06:33:30;;;;;;;;;;;12.30;99.90;;;;;;5090939;28;20385;-64
2022/03/29 06:35:58;;;;;;;;;;;12.30;99.90;;;;;;5091561;28;19967;-64
2022/03/29 06:38:26;;;;;;;;;;;12.20;99.90;;;;;;5085737;28;19978;-63
2022/03/29 06:40:54;;;;;;;;;;;12.00;99.90;;;;;;5087489;28;19924;-65
2022/03/29 06:43:22;;;;;;;;;;;11.90;99.90;;;;;;5090968;28;19971;-66
2022/03/29 06:45:49;;;;;;;;;;;11.70;99.90;;;;;;5091281;28;20393;-64
2022/03/29 06:48:19;;;;;;;;;;;11.70;99.90;;;;;;5091593;28;19935;-65
2022/03/29 06:50:48;;;;;;;;;;;11.70;99.90;;;;;;5091680;28;20027;-65
2022/03/29 06:53:16;;;;;;;;;;;11.90;99.90;;;;;;5090798;28;20277;-65
2022/03/29 06:55:43;;;;;;;;;;;12.10;99.90;;;;;;5091477;28;20014;-64
2022/03/29 06:58:11;;;;;;;;;;;12.30;99.90;;;;;;5091464;28;19970;-63
2022/03/29 07:00:45;;;;;;;;;;;12.40;99.90;;;;;;5091508;28;20335;-64
2022/03/29 07:03:13;;;;;;;;;;;12.50;99.90;;;;;;5090519;28;20408;-66
2022/03/29 07:05:46;;;;;;;;;;;12.60;99.90;;;;;;5091765;28;19934;-64
2022/03/29 07:08:16;;;;;;;;;;;12.60;99.90;;;;;;5083378;28;20348;-63
2022/03/29 07:13:29;;;;;;;;;;;12.80;99.90;;;;;;5090524;28;19924;-63
2022/03/29 07:15:57;;;;;;;;;;;12.70;99.90;;;;;;5091399;28;19928;-63
2022/03/29 07:18:25;;;;;;;;;;;12.70;99.90;;;;;;5091291;28;19970;-63
2022/03/29 07:20:54;;;;;;;;;;;12.60;99.90;;;;;;5090847;28;20509;-63
2022/03/29 07:23:22;;;;;;;;;;;12.60;99.90;;;;;;5090543;28;19970;-64
2022/03/29 07:25:50;;;;;;;;;;;12.50;99.90;;;;;;5091704;28;20319;-63
2022/03/29 07:28:17;;;;;;;;;;;12.50;99.90;;;;;;5091292;28;20029;-63
2022/03/29 07:30:46;;;;;;;;;;;12.40;99.90;;;;;;5091230;28;20075;-63
2022/03/29 07:33:15;;;;;;;;;;;12.40;99.90;;;;;;5090496;28;19924;-63
2022/03/29 07:35:42;;;;;;;;;;;12.50;99.90;;;;;;5091391;28;20384;-64
2022/03/29 07:38:12;;;;;;;;;;;12.50;99.90;;;;;;5090467;28;20285;-63
2022/03/29 07:40:40;;;;;;;;;;;12.60;99.90;;;;;;5085379;28;20031;-64
2022/03/29 07:43:10;;;;;;;;;;;12.60;99.90;;;;;;5090317;28;19950;-64
2022/03/29 07:45:37;;;;;;;;;;;12.70;99.90;;;;;;5091190;28;19985;-63
2022/03/29 07:48:05;;;;;;;;;;;12.80;99.90;;;;;;5091143;28;19931;-63
2022/03/29 07:50:53;;;;;;;;;;;12.90;99.90;;;;;;5090696;28;20039;-63
2022/03/29 07:53:24;;;;;;;;;;;13.00;99.90;;;;;;5090059;28;19928;-62
2022/03/29 07:55:54;;;;;;;;;;;13.00;99.90;;;;;;5090993;28;19976;-63
2022/03/29 07:58:21;;;;;;;;;;;13.10;99.90;;;;;;5091204;28;20374;-63
2022/03/29 08:00:51;;;;;;;;;;;13.20;99.90;;;;;;5090890;28;20022;-63
2022/03/29 08:03:21;;;;;;;;;;;13.20;99.90;;;;;;5090258;28;20389;-63
2022/03/29 08:05:50;;;;;;;;;;;13.30;99.90;;;;;;5090868;28;19928;-63
2022/03/29 08:08:19;;;;;;;;;;;13.20;99.90;;;;;;5080778;28;19970;-63
2022/03/29 08:10:48;;;;;;;;;;;13.20;99.90;;;;;;5087935;28;20381;-60
2022/03/29 08:13:16;;;;;;;;;;;13.20;99.90;;;;;;5089996;28;20018;-63
2022/03/29 08:15:46;;;;;;;;;;;13.20;99.90;;;;;;5090631;28;19975;-63
2022/03/29 08:18:15;;;;;;;;;;;13.20;99.90;;;;;;5090836;28;19978;-63
2022/03/29 08:20:43;;;;;;;;;;;13.30;99.90;;;;;;5091048;28;19978;-63
2022/03/29 08:23:11;;;;;;;;;;;13.40;99.90;;;;;;5093111;28;19924;-63
2022/03/29 08:25:40;;;;;;;;;;;13.20;99.90;;;;;;5094325;28;20316;-63
2022/03/29 08:28:09;;;;;;;;;;;13.30;99.90;;;;;;5094038;28;19967;-61
2022/03/29 08:30:37;;;;;;;;;;;13.30;99.90;;;;;;5094326;28;19971;-63
2022/03/29 08:33:05;;;;;;;;;;;13.30;99.90;;;;;;5093330;28;20089;-63
2022/03/29 08:35:33;;;;;;;;;;;13.30;99.90;;;;;;5093961;28;19924;-63
2022/03/29 08:38:02;;;;;;;;;;;13.40;99.90;;;;;;5092463;28;19970;-64
2022/03/29 08:40:50;;;;;;;;;;;13.60;99.90;;;;;;5087038;28;19932;-63
2022/03/29 08:43:19;;;;;;;;;;;13.60;99.90;;;;;;5093101;28;20027;-63
2022/03/29 08:45:48;;;;;;;;;;;13.50;99.90;;;;;;5094065;28;19924;-61
2022/03/29 08:48:16;;;;;;;;;;;13.70;99.90;;;;;;5094020;28;19930;-63
2022/03/29 08:50:45;;;;;;;;;;;13.70;99.90;;;;;;5094048;28;19947;-64
2022/03/29 08:53:15;;;;;;;;;;;13.90;99.90;;;;;;5092716;28;19970;-63
2022/03/29 08:55:44;;;;;;;;;;;14.10;99.90;;;;;;5094026;28;19924;-63
2022/03/29 08:58:12;;;;;;;;;;;14.20;99.90;;;;;;5093579;28;19928;-63
2022/03/29 09:00:41;;;;;;;;;;;14.20;99.90;;;;;;5093575;28;20409;-64
2022/03/29 09:03:10;;;;;;;;;;;14.40;99.90;;;;;;5092961;28;20023;-64
2022/03/29 09:05:39;;;;;;;;;;;14.40;99.90;;;;;;5093380;28;19959;-61
2022/03/29 09:08:09;;;;;;;;;;;14.30;99.90;;;;;;5082552;28;19986;-63
2022/03/29 09:10:41;;;;;;;;;;;14.40;99.90;;;;;;5089073;28;19956;-63
2022/03/29 09:13:16;;;;;;;;;;;14.40;99.90;;;;;;5092563;28;19924;-62
2022/03/29 09:15:45;;;;;;;;;;;14.40;99.90;;;;;;5093372;28;20202;-64
2022/03/29 09:18:13;;;;;;;;;;;14.30;99.90;;;;;;5093042;28;19990;-64
2022/03/29 09:20:41;;;;;;;;;;;14.30;99.90;;;;;;5093375;28;20351;-64
2022/03/29 09:23:12;;;;;;;;;;;14.30;99.90;;;;;;5092946;28;19927;-64
2022/03/29 09:25:46;;;;;;;;;;;14.50;99.90;;;;;;5093145;28;19982;-63
2022/03/29 09:28:15;;;;;;;;;;;14.60;99.90;;;;;;5093157;28;19924;-63
2022/03/29 09:30:43;;;;;;;;;;;14.60;99.90;;;;;;5092913;28;20023;-63
2022/03/29 09:33:13;;;;;;;;;;;14.80;99.90;;;;;;5091724;28;19924;-64
2022/03/29 09:35:54;;;;;;;;;;;14.80;99.90;;;;;;5092896;28;20472;-63
2022/03/29 09:38:24;;;;;;;;;;;14.80;99.90;;;;;;5089984;28;19960;-64
2022/03/29 09:40:52;;;;;;;;;;;14.90;99.90;;;;;;5091528;28;20422;-62
2022/03/29 09:43:21;;;;;;;;;;;15.10;99.90;;;;;;5091972;28;20201;-64
2022/03/29 09:45:50;;;;;;;;;;;15.20;99.90;;;;;;5092780;28;20472;-64
2022/03/29 09:48:26;;;;;;;;;;;15.30;99.90;;;;;;5074186;28;20027;-64
2022/03/29 09:50:55;;;;;;;;;;;15.30;98.90;;;;;;5092504;28;19924;-64
2022/03/29 09:53:37;;;;;;;;;;;15.40;98.50;;;;;;5091304;28;20381;-64
2022/03/29 09:56:05;;;;;;;;;;;15.50;98.00;;;;;;5086216;28;19967;-64
2022/03/29 09:58:33;;;;;;;;;;;15.50;98.00;;;;;;5092403;28;19931;-63
2022/03/29 10:01:01;;;;;;;;;;;15.50;98.00;;;;;;5092240;28;19978;-63
2022/03/29 10:03:33;;;;;;;;;;;15.50;97.90;;;;;;5085018;28;19928;-64
2022/03/29 10:06:03;;;;;;;;;;;15.50;98.00;;;;;;5086217;28;19985;-63
2022/03/29 10:11:17;;;;;;;;;;;15.60;97.60;;;;;;5092002;28;19977;-64
2022/03/29 10:13:46;;;;;;;;;;;15.80;97.30;;;;;;5091199;28;19963;-63
2022/03/29 10:16:16;;;;;;;;;;;15.90;96.50;;;;;;5092090;28;19924;-63
2022/03/29 10:18:46;;;;;;;;;;;16.00;97.10;;;;;;5092315;28;19924;-64
2022/03/29 10:21:15;;;;;;;;;;;16.00;96.90;;;;;;5091769;28;19959;-64
2022/03/29 10:23:43;;;;;;;;;;;16.20;96.70;;;;;;5090960;28;19970;-64
2022/03/29 10:26:16;;;;;;;;;;;16.30;95.20;;;;;;5092018;28;19970;-64
2022/03/29 10:28:45;;;;;;;;;;;16.40;95.40;;;;;;5091948;28;19924;-64
2022/03/29 10:31:33;;;;;;;;;;;16.50;95.40;;;;;;5091674;28;20027;-64
2022/03/29 10:34:17;;;;;;;;;;;16.50;94.10;;;;;;5083855;28;19971;-64
2022/03/29 10:37:01;;;;;;;;;;;16.80;94.90;;;;;;5090717;28;19959;-63
2022/03/29 10:39:45;;;;;;;;;;;17.10;94.00;;;;;;5083735;28;19932;-64
2022/03/29 10:42:26;;;;;;;;;;;17.30;94.50;;;;;;5084616;28;19950;-64
2022/03/29 10:45:01;;;;;;;;;;;17.40;94.50;;;;;;5090793;28;19982;-65
2022/03/29 10:48:02;;;;;;;;;;;17.40;93.70;;;;;;5091466;28;20386;-64
2022/03/29 10:50:45;;;;;;;;;;;17.80;92.90;;;;;;5091459;28;20177;-64
2022/03/29 10:53:24;;;;;;;;;;;17.70;92.20;;;;;;5070185;28;20352;-64
2022/03/29 10:56:06;;;;;;;;;;;17.90;92.20;;;;;;5091660;28;19925;-64
2022/03/29 10:58:34;;;;;;;;;;;17.90;92.50;;;;;;5090486;28;19924;-64
2022/03/29 11:01:12;;;;;;;;;;;17.90;93.20;;;;;;5091360;28;20031;-64
2022/03/29 11:03:58;;;;;;;;;;;17.90;91.80;;;;;;5090739;28;20430;-65
2022/03/29 11:06:26;;;;;;;;;;;18.00;92.30;;;;;;5091544;28;19971;-64
2022/03/29 11:09:04;;;;;;;;;;;18.20;91.80;;;;;;5087552;28;20493;-64
2022/03/29 11:11:39;;;;;;;;;;;18.20;92.10;;;;;;5088888;28;19924;-64
2022/03/29 11:14:21;;;;;;;;;;;18.00;91.10;;;;;;5090630;28;20392;-63
2022/03/29 11:16:49;;;;;;;;;;;18.30;90.90;;;;;;5053010;28;19946;-63
2022/03/29 11:19:32;;;;;;;;;;;18.20;90.70;;;;;;5091204;28;20430;-64
2022/03/29 11:22:19;;;;;;;;;;;18.10;90.90;;;;;;5085762;28;19950;-64
2022/03/29 11:24:49;;;;;;;;;;;18.10;90.60;;;;;;5091068;28;19935;-65
2022/03/29 11:27:21;;;;;;;;;;;18.10;91.20;;;;;;5090986;28;19971;-64
2022/03/29 11:29:49;;;;;;;;;;;18.30;91.30;;;;;;5091350;28;19970;-65
2022/03/29 11:32:17;;;;;;;;;;;18.50;91.10;;;;;;5090238;28;19963;-64
2022/03/29 11:34:45;;;;;;;;;;;18.70;90.70;;;;;;5091088;28;19973;-64
2022/03/29 11:37:25;;;;;;;;;;;18.80;90.60;;;;;;5085930;28;19978;-63
2022/03/29 11:39:55;;;;;;;;;;;18.70;89.60;;;;;;5081053;28;19993;-64
2022/03/29 11:42:23;;;;;;;;;;;18.50;90.90;;;;;;5090226;28;20415;-64
2022/03/29 11:44:51;;;;;;;;;;;18.50;89.10;;;;;;5090915;28;20408;-64
2022/03/29 11:47:19;;;;;;;;;;;18.30;90.30;;;;;;5090981;28;19946;-64
2022/03/29 11:49:54;;;;;;;;;;;18.30;90.00;;;;;;5091092;28;19981;-64
2022/03/29 11:52:22;;;;;;;;;;;18.30;90.10;;;;;;5090101;28;20584;-64
2022/03/29 11:54:51;;;;;;;;;;;18.30;90.00;;;;;;5091744;28;19966;-64
2022/03/29 11:57:24;;;;;;;;;;;18.20;89.50;;;;;;5094954;28;20015;-64
2022/03/29 11:59:53;;;;;;;;;;;18.30;90.00;;;;;;5094848;28;19928;-64
2022/03/29 12:02:25;;;;;;;;;;;18.40;90.20;;;;;;5093864;28;20296;-63
2022/03/29 12:04:53;;;;;;;;;;;18.60;90.20;;;;;;5094705;28;19989;-64
2022/03/29 12:07:34;;;;;;;;;;;18.70;90.00;;;;;;5094741;28;19924;-64
2022/03/29 12:10:03;;;;;;;;;;;18.70;88.60;;;;;;5088154;28;20436;-64
2022/03/29 12:12:32;;;;;;;;;;;18.70;88.90;;;;;;5090673;28;19928;-64
2022/03/29 12:15:04;;;;;;;;;;;18.80;87.20;;;;;;5088811;28;19977;-64
2022/03/29 12:17:31;;;;;;;;;;;18.60;88.00;;;;;;5092500;28;19977;-64
2022/03/29 12:19:59;;;;;;;;;;;18.60;88.40;;;;;;5094847;28;19953;-64
2022/03/29 12:22:29;;;;;;;;;;;18.60;86.50;;;;;;5093037;28;20388;-64
2022/03/29 12:24:57;;;;;;;;;;;18.70;86.10;;;;;;5094089;28;19975;-63
2022/03/29 12:27:26;;;;;;;;;;;18.60;86.40;;;;;;5094356;28;19924;-64
2022/03/29 12:29:58;;;;;;;;;;;18.70;88.00;;;;;;5094192;28;20464;-64
2022/03/29 12:32:26;;;;;;;;;;;18.50;88.20;;;;;;5093341;28;19981;-64
2022/03/29 12:34:55;;;;;;;;;;;18.30;88.10;;;;;;5093979;28;20444;-64
2022/03/29 12:37:23;;;;;;;;;;;18.20;89.10;;;;;;5094091;28;19934;-64
2022/03/29 12:39:54;;;;;;;;;;;18.20;89.40;;;;;;5093893;28;19966;-64
2022/03/29 12:42:22;;;;;;;;;;;18.10;88.50;;;;;;5090380;28;19932;-64
2022/03/29 12:44:55;;;;;;;;;;;18.20;88.10;;;;;;5087677;28;19949;-64
2022/03/29 12:47:24;;;;;;;;;;;18.10;87.20;;;;;;5093813;28;20359;-64
2022/03/29 12:49:52;;;;;;;;;;;17.90;89.10;;;;;;5093938;28;20568;-64
2022/03/29 12:52:20;;;;;;;;;;;18.00;89.10;;;;;;5093043;28;20415;-64
2022/03/29 12:54:48;;;;;;;;;;;17.90;88.30;;;;;;5093072;28;20444;-64
2022/03/29 12:57:18;;;;;;;;;;;17.80;88.30;;;;;;5093751;28;20371;-64
2022/03/29 12:59:47;;;;;;;;;;;17.70;89.30;;;;;;5093446;28;19924;-64
2022/03/29 13:02:17;;;;;;;;;;;17.90;89.20;;;;;;5092823;28;19928;-63
2022/03/29 13:04:46;;;;;;;;;;;18.00;88.60;;;;;;5087121;28;19928;-64
2022/03/29 13:07:34;;;;;;;;;;;18.00;88.50;;;;;;5086441;28;20375;-64
2022/03/29 13:10:04;;;;;;;;;;;18.10;88.70;;;;;;5089412;28;19971;-64
2022/03/29 13:12:48;;;;;;;;;;;18.20;90.20;;;;;;5062267;28;19924;-64
2022/03/29 13:15:50;;;;;;;;;;;18.10;90.00;;;;;;5092041;28;19923;-64
2022/03/29 13:18:20;;;;;;;;;;;18.00;90.10;;;;;;4991524;28;19961;-64
2022/03/29 13:21:11;;;;;;;;;;;17.90;90.00;;;;;;4990842;28;19940;-63
2022/03/29 13:23:57;;;;;;;;;;;17.80;89.40;;;;;;5051335;28;20023;-64
2022/03/29 13:26:25;;;;;;;;;;;17.60;90.20;;;;;;5072486;28;19964;-64
2022/03/29 13:28:54;;;;;;;;;;;17.70;90.70;;;;;;5072321;28;19981;-63
2022/03/29 13:31:24;;;;;;;;;;;17.80;89.70;;;;;;5072657;28;19924;-64
2022/03/29 13:33:54;;;;;;;;;;;17.80;90.00;;;;;;5071652;28;19924;-64
2022/03/29 13:36:22;;;;;;;;;;;17.80;90.20;;;;;;5072406;28;19975;-64
2022/03/29 13:38:52;;;;;;;;;;;17.60;90.20;;;;;;5071054;28;19929;-64
2022/03/29 13:41:20;;;;;;;;;;;17.60;90.30;;;;;;5057528;28;19960;-62
2022/03/29 13:43:48;;;;;;;;;;;17.50;90.40;;;;;;5061078;28;19947;-64
2022/03/29 13:46:16;;;;;;;;;;;17.40;90.20;;;;;;5072364;28;20020;-64
2022/03/29 13:49:05;;;;;;;;;;;17.60;90.50;;;;;;5072141;28;20024;-64
2022/03/29 13:51:34;;;;;;;;;;;17.50;90.20;;;;;;5072009;28;19939;-63
2022/03/29 13:54:02;;;;;;;;;;;17.50;90.40;;;;;;5071037;28;19960;-64
2022/03/29 13:56:32;;;;;;;;;;;17.70;90.60;;;;;;5071964;28;19924;-64
2022/03/29 13:59:00;;;;;;;;;;;17.60;90.20;;;;;;5071921;28;19970;-64
2022/03/29 14:01:28;;;;;;;;;;;17.60;89.70;;;;;;5071795;28;19925;-64
2022/03/29 14:03:56;;;;;;;;;;;17.50;89.50;;;;;;5070954;28;19938;-65
2022/03/29 14:06:25;;;;;;;;;;;17.50;90.20;;;;;;5071709;28;19932;-64
2022/03/29 14:08:54;;;;;;;;;;;17.60;90.60;;;;;;5071786;28;19979;-64
2022/03/29 14:11:22;;;;;;;;;;;17.50;89.80;;;;;;5062727;28;19925;-64
2022/03/29 14:13:50;;;;;;;;;;;17.40;90.10;;;;;;5048446;28;19931;-64
2022/03/29 14:16:23;;;;;;;;;;;17.40;90.50;;;;;;5071795;28;19970;-64
2022/03/29 14:18:53;;;;;;;;;;;17.30;89.40;;;;;;5071357;28;19925;-64
2022/03/29 14:21:21;;;;;;;;;;;17.30;90.00;;;;;;5076045;28;19990;-64
2022/03/29 14:23:50;;;;;;;;;;;17.50;90.90;;;;;;5091081;28;19924;-63
2022/03/29 14:26:18;;;;;;;;;;;17.40;90.20;;;;;;5085207;28;19969;-62
2022/03/29 14:28:48;;;;;;;;;;;17.30;90.40;;;;;;5092066;28;20508;-64
2022/03/29 14:31:16;;;;;;;;;;;17.40;90.30;;;;;;5091859;28;19925;-64
2022/03/29 14:33:45;;;;;;;;;;;17.40;90.00;;;;;;5084497;28;19974;-65
2022/03/29 14:36:12;;;;;;;;;;;17.40;90.10;;;;;;5092133;28;19928;-64
2022/03/29 14:38:41;;;;;;;;;;;17.40;90.20;;;;;;5085455;28;19947;-64
2022/03/29 14:41:28;;;;;;;;;;;17.50;90.20;;;;;;5083030;28;19931;-64
2022/03/29 14:43:56;;;;;;;;;;;17.60;90.30;;;;;;5085974;28;20285;-65